Terminal Aerodrome Forecast
Issued by NWS Tampa Bay Area, FL

Home | Current Version | Previous Version | Text Only | Print | Product List | Glossary On
Versions: 1 2 3 4 5 6 7 8 9 10 11 12 13 14 15 16 17 18 19 20 21 22 23
000
FTUS42 KTBW 010900 AAA
TAFFMY
TAF AMD
KFMY 010900Z 0109/0206 VRB03KT P6SM SCT250
      TEMPO 0109/0110 4SM BR OVC002
     FM011600 23008KT P6SM VCTS SCT025CB BKN100 BKN250
     FM020200 VRB04KT P6SM SCT030 BKN200=

USA.gov is the U.S. government's official web portal to all federal, state and local government web resources and services.